Sections

Participating Servers  (Miscellaneous Statistics)

Tracking 361,952 players (178 new players last 24h) with 10,945,861 kills and 391,345 headshots (3,58%) on 1 servers
Server Address Map Time Players
[ESP] .:MAPEADORES:. | ZOMBIE ESCAPE zombie.mapeadores.com:27040 ze_einstein_v7 00:08:31h 60/62
Server Address Map Time Players
[ESP] .:MAPEADORES:. | ZOMBIE ESCAPE zombie.mapeadores.com:27040 ze_einstein_v7 00:08:31h 60/62
# Player Frags Hs Hpk Assists Rounds Wins Acc Lat Time +/- Skill Position
1  MrJokerF 2 : 1 0 - - 4 1 12% 103 01:14:42h 1,509 316,451 319
2  Janaa 1 : 2 0 - - 4 1 8% 121 00:33:20h 462 4,581 3,133
3  Jerem_91 0 : 1 0 - - 1 0 10% 84 00:07:21h 15 555,626 167
4  Algelis Beinor 0 : 2 0 - - 4 0 25% 83 00:13:16h 25 373,439 257
5  AliBlue ツ 0 : 1 0 - - 4 0 25% 86 00:13:28h 30 104,931 790
6  oguzhanoz33 0 : 2 0 - - 4 0 35% 174 00:17:17h 191 115,552 733
7  NAWHISLER 0 : 2 0 - - 4 0 12% 257 00:19:31h 70 37,355 1,455
8  Ligma 0 : 2 0 - - 4 0 34% 93 00:21:15h 141 137,839 654
9  Nice Name 0 : 1 0 - - 3 0 24% 350 00:24:00h 194 1,417,640 53
10  Pinozss 0 : 2 0 - - 4 0 9% 325 00:27:04h 45 1,045 -
11  marqusz 0 : 2 0 - - 4 0 23% 145 00:30:12h 200 2,520 3,802
12  Morden Crusader 0 : 2 0 - - 4 0 - 350 00:30:25h 481 289,593 352
13  ฿itcoincidence 0 : 1 0 - - 4 0 17% 91 00:31:04h 561 1,887,571 32
14  YangMan EW 0 : 2 0 - - 4 0 2% 208 00:31:24h 257 1,272 5,292
15  yes 0 : 2 0 - - 4 0 1% 143 00:36:35h 628 163,533 572
16  Vegeta 0 : 1 0 - - 4 0 - 90 00:42:21h 706 12,134 2,326
17  Pyxus' 0 : 1 0 - - 4 0 29% 122 00:51:16h 727 170,852 554
18  clad2075 0 : 1 0 - - 3 0 12% 56 00:56:22h 829 1,099,155 77
19  White Knight 0 : 2 0 - - 4 0 180% 90 00:59:13h 685 53,000 1,229
20  rainbox985 0 : 2 0 - - 4 0 12% 109 01:19:38h 2,305 20,855 1,893
21  Weady 0 : 1 0 - - 3 0 26% 103 02:24:13h 1,976 340,258 291
22  TrevXvert 0 : 1 0 - - 4 0 14% 307 05:42:54h 8,934 1,913,489 29
Humano (0 Wins) 3 : 34 0 - - 82 2 25% 159 19:46:51h - 409,941 1,143
1  dcsniper 8 : 2 0 - - 4 1 4% 162 01:39:38h 2,499 171,298 552
2  Shibo 6 : 2 0 - - 4 1 19% 78 00:20:35h 316 202,051 475
3  low npc 6 : 1 0 - - 4 1 23% 120 00:49:45h 860 223,537 434
4  Hip2BeSquare 5 : 1 0 - - 4 1 27% 101 00:22:21h 499 219,907 443
5  rizzle 4 : 1 0 - - 4 1 14% 144 00:52:49h 1,005 8,208 2,639
6  Девтерёв 4 : 2 0 - - 4 1 4% 142 01:34:49h 1,813 83,895 920
7  ヨルシカ 4 : 2 0 - - 4 1 14% 118 02:56:53h 4,483 277,328 362
8  Speed my brain 3 : 2 0 - - 4 1 41% 93 00:09:03h 167 278,052 360
9  Karl Altrad 3 : 2 0 - - 4 0 1% 72 00:14:43h 224 20,113 1,926
10  SHOULDER CHARGE 2 STRONKS 3 : 2 0 - - 4 1 20% 59 00:19:32h 261 256,762 388
11  Tanuki 3 : 1 0 - - 4 1 1% 86 00:25:27h 657 36,664 1,464
12  NOX 3 : 2 0 - - 4 1 11% 104 02:35:48h 2,508 17,466 2,029
13  Nine-tailed-fox AREA 78 2 : 2 0 - - 4 1 35% 133 00:25:47h 291 19,369 1,954
14  LociaM 2 : 2 0 - - 4 1 37% 96 00:28:28h 409 72,626 1,015
15  Por Que 2 : 1 0 - - 4 1 24% 117 00:47:21h 952 147,930 609
16  Saastamoinen 2 : 1 0 - - 4 0 - 104 01:05:40h 971 615,761 152
17  EpicIGamerS 2 : 2 0 - - 4 1 20% 342 01:28:03h 1,601 72,635 1,013
18  yoonie 1 : 0 0 - - 1 0 - 254 00:04:13h 25 2,235 3,961
19  rezak 1 : 1 0 - - 1 0 2% 137 00:07:21h 56 16,639 2,070
20  tuulen 1 : 1 0 - - 3 1 9% 111 00:17:57h 506 1,633,614 42
21  Batman 1 : 1 0 - - 4 1 21% 100 00:17:59h 755 1,847,153 35
22  hashi 1 : 2 0 - - 4 0 10% 121 00:21:29h 273 27,315 1,692
23  銆銘 1 : 2 0 - - 4 0 56% 140 00:39:06h 288 1,288 5,252
24  fewwheel03 1 : 2 0 - - 4 0 28% 81 00:53:17h 350 33,677 1,522
25  Skrambl 1 : 2 0 - - 4 0 13% 88 02:42:19h 2,286 93,167 857
26  Lynxee 1 : 1 0 - - 3 1 13% 237 03:15:45h 3,295 128,503 690
27  sam 1 : 1 0 - - 3 1 3% 298 03:40:27h 1,544 15,511 2,135
28  MInuS 0 : 0 0 - - 2 0 - 188 00:54:39h 624 823,680 97
Zombie (1 Wins) 72 : 41 0 - - 101 19 18% 137 1d 05:51h - 262,371 1,253
1  7331 0 : 0 0 - - 0 0 - - 00:01:02h - 20,471 1,909
2  Graduate{C-O-F-F-I-N} 0 : 0 0 - - 0 0 - 297 00:01:25h - 533,719 172
3  SouSA 0 : 0 0 - - 0 0 - 110 00:01:39h - 1,518 4,770
4  Lil Guizinho Tim habou 0 : 0 0 - - 0 0 - 156 00:01:46h - 1,316 5,174
5  Kitsune 狐狸 :3 0 : 0 0 - - 0 0 - 1,188 00:01:48h - 1,238,453 66
6  yatraclo 0 : 0 0 - - 0 0 - 116 00:02:33h - 76,741 974
7  no ur weetahd 0 : 0 0 - - 0 0 - 48 00:02:40h - 2,072 4,085
8  Soc1opath 0 : 0 0 - - 0 0 - 2,506 00:02:59h - 111,662 747
9  The03Swede 0 : 0 0 - - 0 0 - 85 00:03:18h - 10,672 2,418
10  Mordblkasha 0 : 0 0 - - 1 0 - 132 00:05:21h 15 15,529 2,131

Daily Awards (Overview)

Award Winner (Saturday, Jul 11, 2020) Today's Leader
AK-47  k/\mzeL (3 kills with ak47) Not awarded
AUG  JM (2 kills with aug) Not awarded
AWP  rodfus (3 kills with awp) Not awarded
Bayonet Not awarded Not awarded
CZ75A Not awarded Not awarded
Desert Eagle  allawi (1 kills with deagle) Not awarded
Dual Berettas  Carlossie (1 kills with elite) Not awarded
FAMAS Not awarded Not awarded
Five-SeveN Not awarded Not awarded
G3SG1  MichaelHotNguyen1 (2 kills with g3sg1) Not awarded
Galil AR  johnsonhua8 (1 kills with galilar) Not awarded
Glock-18  cheeki breeki (1 kills with glock) Not awarded
High Explosive Grenade  BlacK MaMBa (17 kills with hegrenade) Not awarded
Longest Kill Streak  BlacK MaMBa (22 kills) Not awarded
Longest Play Time  Weady (12:12:40h hours) Not awarded
M249  Yuan (2 kills with m249) Not awarded
M4A1-S  WallBreakerI (3 kills with m4a1-s) Not awarded
M4A4  NBRKNK (4 kills with m4a4) Not awarded
MAC-10 Not awarded Not awarded
MAG-7  Akolein (1 kills with mag7) Not awarded
Most Damage  minecraft-steven (1,062,223 damage) Not awarded
Most Headshots  minecraft-steven (14 headshots) Not awarded
Most Improved Player  minecraft-steven (14,796 points gained) Not awarded
Most Kills  Ron (94 kills) Not awarded
MP5-SD Not awarded Not awarded
MP7 Not awarded Not awarded
MP9 Not awarded Not awarded
Navaja Knife Not awarded Not awarded
Negev  Zam The Man (29 kills with negev) Not awarded
Nova  Shibo (1 kills with nova) Not awarded
P2000  Duplex (1 kills with hkp2000) Not awarded
P250 Not awarded Not awarded
P90  ๖ۣۜƳᵃᶬᵅᵗô࿐ (2 kills with p90) Not awarded
PP-Bizon  bukak (11 kills with bizon) Not awarded
R8 Revolver  Lazy Cat (1 kills with revolver) Not awarded
Sawed-Off Not awarded Not awarded
SCAR-20  minecraft-steven (1 kills with scar20) Not awarded
SG 553  lwO.Owl (1 kills with sg556) Not awarded
SSG 08 Not awarded Not awarded
Stiletto Knife Not awarded Not awarded
Talon Knife Not awarded Not awarded
Tec-9  HB the Ripper (1 kills with tec9) Not awarded
UMP-45 Not awarded Not awarded
Ursus Knife Not awarded Not awarded
USP-S  nice (1 kills with usp-s) Not awarded
XM1014  HB the Ripper (2 kills with xm1014) Not awarded
Zeus x27 Not awarded Not awarded